Time;durP1;ratioP1;P1;durP2;ratioP2;P2;SDS_P1;SDS_P2;PMS_P1;PMS_P2;Temp;Humidity;BMP_temperature;BMP_pressure;BME280_temperature;BME280_humidity;BME280_pressure;Samples;Min_cycle;Max_cycle;Signal;HPM_P1;HPM_P2
2021/06/17 00:00:29;;;;;;;4.80;4.10;;;22.60;72.90;;;;;;5039766;28;20059;-66
2021/06/17 00:02:56;;;;;;;4.68;4.18;;;22.60;73.30;;;;;;5037224;28;20030;-66
2021/06/17 00:05:24;;;;;;;4.57;4.00;;;22.50;73.60;;;;;;5038134;28;20461;-66
2021/06/17 00:07:50;;;;;;;4.32;3.92;;;22.50;73.90;;;;;;5036298;28;20033;-66
2021/06/17 00:10:46;;;;;;;6.03;4.25;;;22.50;74.10;;;;;;5036521;28;20097;-66
2021/06/17 00:13:23;;;;;;;4.40;4.00;;;22.40;74.10;;;;;;5036210;28;20061;-66
2021/06/17 00:15:50;;;;;;;8.70;4.50;;;22.40;74.50;;;;;;5037133;28;20035;-66
2021/06/17 00:18:16;;;;;;;7.22;4.65;;;22.30;74.60;;;;;;5036943;28;20095;-66
2021/06/17 00:20:42;;;;;;;5.18;4.68;;;22.20;74.60;;;;;;5038405;28;20039;-66
2021/06/17 00:23:09;;;;;;;6.22;5.63;;;22.20;74.80;;;;;;5036372;28;20013;-66
2021/06/17 00:25:35;;;;;;;7.50;5.55;;;22.20;75.10;;;;;;5035378;28;20018;-66
2021/06/17 00:28:01;;;;;;;9.50;5.57;;;22.10;75.30;;;;;;5033923;28;20072;-66
2021/06/17 00:30:27;;;;;;;7.07;5.47;;;22.10;75.40;;;;;;5034807;28;20513;-66
2021/06/17 00:32:54;;;;;;;5.72;4.88;;;22.00;75.60;;;;;;5035873;28;20021;-66
2021/06/17 00:35:20;;;;;;;7.82;5.82;;;22.00;76.00;;;;;;5036950;28;20017;-66
2021/06/17 00:37:46;;;;;;;5.78;4.85;;;22.00;76.10;;;;;;5038126;28;20031;-66
2021/06/17 00:40:14;;;;;;;5.40;4.90;;;22.00;76.20;;;;;;5035946;28;20021;-66
2021/06/17 00:42:41;;;;;;;5.70;5.18;;;22.00;76.50;;;;;;5036265;28;20025;-66
2021/06/17 00:45:10;;;;;;;6.30;5.70;;;21.90;76.70;;;;;;5035205;28;20017;-66
2021/06/17 00:47:36;;;;;;;7.22;5.07;;;21.90;77.20;;;;;;5034591;28;20013;-66
2021/06/17 00:50:05;;;;;;;5.60;5.10;;;21.90;77.60;;;;;;5036986;28;20022;-66
2021/06/17 00:52:31;;;;;;;6.18;5.63;;;21.90;78.00;;;;;;5036479;28;20030;-66
2021/06/17 00:54:58;;;;;;;6.68;5.97;;;21.80;78.00;;;;;;5062914;28;20025;-66
2021/06/17 00:57:24;;;;;;;7.40;6.28;;;21.80;78.00;;;;;;5034210;28;20096;-66
2021/06/17 00:59:49;;;;;;;6.35;5.75;;;21.80;78.10;;;;;;5036786;28;20532;-66
2021/06/17 01:02:15;;;;;;;9.82;6.72;;;21.70;78.30;;;;;;5037065;28;20021;-66
2021/06/17 01:04:42;;;;;;;8.02;6.40;;;21.70;78.60;;;;;;5035928;28;20022;-66
2021/06/17 01:07:07;;;;;;;7.05;6.38;;;21.70;78.70;;;;;;5036632;28;20017;-66
2021/06/17 01:09:46;;;;;;;7.50;6.43;;;21.60;79.10;;;;;;5035354;28;20516;-66
2021/06/17 01:12:31;;;;;;;9.18;6.43;;;21.70;79.30;;;;;;5034964;28;20013;-66
2021/06/17 01:15:14;;;;;;;7.25;6.15;;;21.60;79.40;;;;;;5034206;28;20021;-66
2021/06/17 01:18:08;;;;;;;6.75;6.15;;;21.60;79.50;;;;;;5036091;28;20044;-66
2021/06/17 01:20:42;;;;;;;7.53;6.00;;;21.50;79.70;;;;;;5037030;28;20406;-66
2021/06/17 01:23:47;;;;;;;6.75;6.10;;;21.50;79.90;;;;;;5035432;28;20484;-66
2021/06/17 01:26:30;;;;;;;9.25;7.15;;;21.50;79.70;;;;;;5034834;28;20029;-66
2021/06/17 01:28:57;;;;;;;7.75;6.10;;;21.50;79.90;;;;;;5034590;28;20032;-66
2021/06/17 01:31:26;;;;;;;7.25;6.55;;;21.50;80.10;;;;;;5033692;28;20013;-66
2021/06/17 01:33:55;;;;;;;6.63;6.03;;;21.50;80.20;;;;;;5036215;28;20029;-66
2021/06/17 01:36:27;;;;;;;7.35;6.65;;;21.50;80.20;;;;;;5035851;28;20072;-66
2021/06/17 01:38:56;;;;;;;7.00;6.35;;;21.40;80.10;;;;;;5034490;28;20026;-67
2021/06/17 01:41:26;;;;;;;6.60;6.00;;;21.40;80.90;;;;;;5036002;28;20484;-66
2021/06/17 01:43:53;;;;;;;7.28;6.07;;;21.40;80.50;;;;;;5034329;28;20504;-66
2021/06/17 01:46:20;;;;;;;9.10;6.65;;;21.30;80.80;;;;;;5034185;28;20484;-66
2021/06/17 01:48:47;;;;;;;7.28;5.95;;;21.30;81.10;;;;;;5033355;28;20021;-66
2021/06/17 01:51:19;;;;;;;7.18;6.43;;;21.30;81.40;;;;;;5036747;28;20026;-66
2021/06/17 01:53:47;;;;;;;7.30;6.60;;;21.30;81.80;;;;;;5033834;28;20018;-66
2021/06/17 01:56:15;;;;;;;8.10;7.30;;;21.20;82.10;;;;;;5033533;28;20029;-67
2021/06/17 01:58:41;;;;;;;9.45;7.97;;;21.20;82.20;;;;;;5035860;28;20021;-66
2021/06/17 02:01:07;;;;;;;9.45;7.38;;;21.10;82.30;;;;;;5035438;28;20071;-66
2021/06/17 02:03:34;;;;;;;8.90;7.45;;;21.20;82.40;;;;;;5036621;28;20017;-66
2021/06/17 02:06:01;;;;;;;7.82;6.97;;;21.10;82.40;;;;;;5034559;28;20025;-66
2021/06/17 02:08:27;;;;;;;8.25;7.55;;;21.10;82.70;;;;;;5033023;28;20021;-66
2021/06/17 02:10:53;;;;;;;8.35;7.28;;;21.10;82.80;;;;;;5034169;28;20386;-66
2021/06/17 02:13:20;;;;;;;7.90;7.20;;;21.10;82.90;;;;;;5033371;28;20021;-66
2021/06/17 02:15:48;;;;;;;9.48;7.38;;;21.10;83.10;;;;;;5035532;28;20049;-66
2021/06/17 02:18:25;;;;;;;10.13;8.75;;;21.10;83.20;;;;;;5034708;28;20045;-66
2021/06/17 02:20:51;;;;;;;9.00;8.10;;;21.10;83.20;;;;;;5036442;28;20032;-65
2021/06/17 02:23:18;;;;;;;8.77;7.97;;;21.00;83.50;;;;;;5034445;28;20043;-66
2021/06/17 02:25:47;;;;;;;8.40;7.60;;;21.00;83.70;;;;;;5033532;28;20025;-66
2021/06/17 02:28:18;;;;;;;9.17;8.30;;;20.90;83.80;;;;;;5033193;28;20033;-66
2021/06/17 02:30:45;;;;;;;8.00;7.18;;;20.90;84.00;;;;;;5031868;28;20029;-66
2021/06/17 02:33:13;;;;;;;9.40;8.40;;;20.90;84.20;;;;;;5034988;28;20159;-65
2021/06/17 02:35:43;;;;;;;10.48;8.25;;;20.80;84.40;;;;;;5033757;28;20393;-66
2021/06/17 02:38:10;;;;;;;10.10;8.13;;;20.80;84.70;;;;;;5035341;28;20070;-65
2021/06/17 02:40:44;;;;;;;9.07;7.78;;;20.80;85.00;;;;;;5033864;28;20026;-66
2021/06/17 02:43:16;;;;;;;9.35;8.05;;;20.70;85.10;;;;;;5033488;28;20377;-66
2021/06/17 02:45:42;;;;;;;9.25;8.35;;;20.70;85.40;;;;;;5032976;28;20021;-66
2021/06/17 02:48:08;;;;;;;9.73;8.73;;;20.70;85.50;;;;;;5031439;28;20017;-66
2021/06/17 02:50:34;;;;;;;9.55;8.55;;;20.70;85.70;;;;;;5034016;28;20100;-66
2021/06/17 02:52:59;;;;;;;11.02;8.73;;;20.70;85.90;;;;;;5034632;28;20175;-66
2021/06/17 02:55:25;;;;;;;12.23;8.55;;;20.70;86.00;;;;;;5032316;28;20026;-65
2021/06/17 02:58:17;;;;;;;10.65;9.27;;;20.70;86.10;;;;;;5032395;28;20025;-65
2021/06/17 03:00:54;;;;;;;9.63;8.70;;;20.80;86.00;;;;;;5034702;28;20021;-65
2021/06/17 03:03:36;;;;;;;9.95;9.07;;;20.80;86.20;;;;;;5034703;28;20021;-65
2021/06/17 03:06:10;;;;;;;10.98;9.60;;;20.80;86.20;;;;;;5033834;28;20009;-65
2021/06/17 03:08:54;;;;;;;10.27;9.13;;;20.80;86.30;;;;;;5034213;28;20024;-65
2021/06/17 03:11:21;;;;;;;9.77;8.88;;;20.80;86.30;;;;;;5033065;28;20441;-65
2021/06/17 03:13:50;;;;;;;9.88;8.90;;;20.70;86.40;;;;;;5032748;28;20457;-65
2021/06/17 03:16:21;;;;;;;9.48;8.27;;;20.80;86.60;;;;;;5033842;28;20053;-65
2021/06/17 03:18:48;;;;;;;10.20;8.32;;;20.80;86.60;;;;;;5035522;28;20042;-65
2021/06/17 03:21:14;;;;;;;9.65;8.65;;;20.80;86.60;;;;;;5034126;28;20029;-66
2021/06/17 03:23:42;;;;;;;9.18;7.97;;;20.80;86.40;;;;;;5032374;28;20021;-65
2021/06/17 03:26:11;;;;;;;8.88;7.97;;;20.80;86.20;;;;;;5033065;28;20049;-65
2021/06/17 03:28:39;;;;;;;11.47;9.30;;;20.80;86.20;;;;;;5031371;28;20092;-65
2021/06/17 03:31:08;;;;;;;9.60;8.63;;;20.80;86.60;;;;;;5032748;28;20032;-65
2021/06/17 03:33:37;;;;;;;10.55;9.35;;;20.80;86.60;;;;;;5034416;28;20026;-65
2021/06/17 03:36:05;;;;;;;13.82;12.45;;;20.80;86.90;;;;;;5035229;28;20091;-66
2021/06/17 03:38:31;;;;;;;14.05;11.65;;;20.80;87.50;;;;;;5033957;28;20014;-65
2021/06/17 03:40:58;;;;;;;12.32;11.10;;;20.80;87.80;;;;;;5034687;28;20022;-65
2021/06/17 03:43:25;;;;;;;13.13;11.82;;;20.80;88.10;;;;;;5033006;28;20024;-65
2021/06/17 03:45:53;;;;;;;13.27;11.88;;;20.80;88.30;;;;;;5031601;28;20033;-65
2021/06/17 03:48:19;;;;;;;13.75;12.38;;;20.90;88.50;;;;;;5031980;28;20100;-65
2021/06/17 03:50:47;;;;;;;13.73;12.25;;;20.90;88.70;;;;;;5031613;28;20061;-65
2021/06/17 03:53:14;;;;;;;13.13;11.65;;;20.90;88.70;;;;;;5034931;28;20454;-65
2021/06/17 03:55:42;;;;;;;12.95;11.55;;;21.00;88.80;;;;;;5032669;28;20021;-65
2021/06/17 03:58:08;;;;;;;12.90;11.40;;;21.00;88.70;;;;;;5032024;28;20022;-65
2021/06/17 04:00:35;;;;;;;15.00;12.38;;;21.00;88.80;;;;;;5033866;28;20021;-65
2021/06/17 04:03:07;;;;;;;13.75;11.52;;;21.00;88.90;;;;;;5036654;28;20044;-65
2021/06/17 04:05:33;;;;;;;14.57;13.07;;;21.10;89.00;;;;;;5038751;28;20413;-65
2021/06/17 04:08:00;;;;;;;16.25;13.10;;;21.10;89.40;;;;;;5036674;28;20037;-65
2021/06/17 04:10:27;;;;;;;12.93;11.60;;;21.10;89.90;;;;;;5035770;28;20359;-65
2021/06/17 04:12:55;;;;;;;15.23;13.38;;;21.10;89.90;;;;;;5035806;28;20022;-65
2021/06/17 04:15:21;;;;;;;16.25;13.32;;;21.20;90.00;;;;;;5034107;28;20026;-65
2021/06/17 04:17:52;;;;;;;15.45;13.05;;;21.20;90.20;;;;;;5036670;28;20382;-65
2021/06/17 04:20:23;;;;;;;16.48;13.35;;;21.20;90.20;;;;;;5036113;28;20105;-65
2021/06/17 04:22:51;;;;;;;16.10;14.40;;;21.20;90.40;;;;;;5051445;28;20013;-65
2021/06/17 04:25:19;;;;;;;17.50;14.77;;;21.20;90.60;;;;;;5036293;28;20021;-65
2021/06/17 04:27:46;;;;;;;15.35;13.68;;;21.30;90.80;;;;;;5035348;28;20049;-65
2021/06/17 04:30:12;;;;;;;18.02;14.90;;;21.30;91.10;;;;;;5035409;28;20013;-65
2021/06/17 04:32:47;;;;;;;16.30;14.70;;;21.40;90.90;;;;;;5035041;28;20465;-65
2021/06/17 04:35:15;;;;;;;16.58;14.93;;;21.40;91.10;;;;;;5037481;28;21486;-65
2021/06/17 04:37:41;;;;;;;16.70;14.63;;;21.50;90.90;;;;;;5038805;28;20029;-65
2021/06/17 04:40:09;;;;;;;15.73;14.10;;;21.50;90.90;;;;;;5036252;28;20022;-65
2021/06/17 04:42:35;;;;;;;16.40;14.80;;;21.60;91.00;;;;;;5035695;28;20086;-65
2021/06/17 04:45:01;;;;;;;16.10;14.50;;;21.60;91.10;;;;;;5034221;28;20025;-65
2021/06/17 04:47:26;;;;;;;15.52;13.85;;;21.70;91.20;;;;;;5035129;28;20075;-65
2021/06/17 04:49:52;;;;;;;18.25;15.13;;;21.70;91.30;;;;;;5034776;28;20021;-65
2021/06/17 04:52:40;;;;;;;16.35;14.75;;;21.70;91.40;;;;;;5036728;28;20021;-65
2021/06/17 04:55:07;;;;;;;16.23;14.52;;;21.80;91.40;;;;;;5034664;28;20025;-65
2021/06/17 04:57:33;;;;;;;19.60;15.52;;;21.80;91.50;;;;;;5034672;28;20025;-65
2021/06/17 04:59:58;;;;;;;17.42;14.27;;;21.90;91.20;;;;;;5034857;28;20025;-65
2021/06/17 05:02:24;;;;;;;16.15;13.98;;;21.90;91.00;;;;;;5036860;28;20022;-65
2021/06/17 05:04:49;;;;;;;13.73;12.32;;;22.00;90.90;;;;;;5035409;28;20029;-64
2021/06/17 05:12:25;;;;;;;14.02;12.55;;;22.20;90.70;;;;;;5054573;28;20051;-65
2021/06/17 05:14:50;;;;;;;12.07;10.85;;;22.30;90.50;;;;;;5052487;28;20116;-65
2021/06/17 05:17:16;;;;;;;15.15;12.52;;;22.30;90.30;;;;;;5054345;28;20041;-65
2021/06/17 05:19:41;;;;;;;14.00;12.52;;;22.40;90.20;;;;;;5054424;28;20092;-65
2021/06/17 05:22:10;;;;;;;12.75;11.45;;;22.50;89.70;;;;;;5053082;28;20021;-65
2021/06/17 05:24:35;;;;;;;14.55;12.40;;;22.50;89.30;;;;;;5054506;28;20028;-65
2021/06/17 05:27:01;;;;;;;11.48;10.30;;;22.50;88.70;;;;;;5054652;28;20021;-65
2021/06/17 05:29:28;;;;;;;14.13;10.95;;;22.60;88.80;;;;;;5054332;28;20473;-65
2021/06/17 05:31:54;;;;;;;14.27;11.15;;;22.60;88.60;;;;;;5054331;28;20476;-65
2021/06/17 05:34:20;;;;;;;12.90;11.60;;;22.70;88.50;;;;;;5038032;28;20040;-65
2021/06/17 05:36:45;;;;;;;13.82;12.27;;;22.70;88.50;;;;;;5032452;28;20057;-65
2021/06/17 05:39:11;;;;;;;14.23;10.73;;;22.70;88.20;;;;;;5036106;28;20115;-65
2021/06/17 05:41:36;;;;;;;13.25;10.52;;;22.70;88.00;;;;;;5062965;28;20025;-65
2021/06/17 05:44:02;;;;;;;11.68;10.48;;;22.80;87.80;;;;;;5064045;28;20025;-65
2021/06/17 05:46:28;;;;;;;11.50;10.30;;;22.80;87.40;;;;;;5062162;28;20070;-65
2021/06/17 05:48:53;;;;;;;13.30;11.25;;;22.80;87.30;;;;;;5070929;28;20020;-65
2021/06/17 05:51:19;;;;;;;12.07;10.88;;;22.90;87.20;;;;;;5072558;28;20028;-65
2021/06/17 05:53:45;;;;;;;12.27;11.07;;;22.90;86.90;;;;;;5073769;28;20032;-65
2021/06/17 05:56:11;;;;;;;11.98;10.02;;;23.00;86.60;;;;;;5073933;28;20036;-65
2021/06/17 05:58:36;;;;;;;10.32;9.23;;;23.10;87.30;;;;;;5073702;28;20028;-65
2021/06/17 06:01:03;;;;;;;11.23;10.02;;;23.20;86.60;;;;;;5073668;28;20025;-65
2021/06/17 06:03:29;;;;;;;11.30;10.23;;;23.20;86.00;;;;;;5073673;28;20060;-65
2021/06/17 06:05:54;;;;;;;11.98;9.70;;;23.20;85.90;;;;;;5070268;28;20049;-65
2021/06/17 06:08:20;;;;;;;10.57;8.52;;;23.30;85.70;;;;;;5066407;28;20133;-65
2021/06/17 06:10:45;;;;;;;9.55;8.45;;;23.40;85.40;;;;;;5066838;28;20037;-65
2021/06/17 06:13:11;;;;;;;8.82;7.93;;;23.40;85.40;;;;;;5052206;28;20020;-65
2021/06/17 06:15:37;;;;;;;9.15;8.00;;;23.50;84.40;;;;;;5057341;28;20024;-65
2021/06/17 06:18:14;;;;;;;10.40;9.30;;;23.60;84.30;;;;;;5052781;28;20128;-65
2021/06/17 06:20:45;;;;;;;8.75;7.95;;;23.70;83.50;;;;;;5051957;28;20021;-65
2021/06/17 06:23:11;;;;;;;9.13;7.95;;;23.80;82.90;;;;;;5052036;28;20029;-65
2021/06/17 06:25:37;;;;;;;8.90;8.05;;;23.90;82.80;;;;;;5053083;28;20100;-65
2021/06/17 06:28:04;;;;;;;9.43;8.35;;;24.00;82.10;;;;;;5053261;28;20099;-65
2021/06/17 06:30:30;;;;;;;10.98;7.70;;;24.10;81.70;;;;;;5051980;28;20041;-65
2021/06/17 06:32:57;;;;;;;8.02;7.22;;;24.30;81.30;;;;;;5052316;28;20027;-65
2021/06/17 06:35:22;;;;;;;8.88;7.90;;;24.30;80.90;;;;;;5052112;28;20086;-65
2021/06/17 06:37:49;;;;;;;8.68;7.13;;;24.50;80.60;;;;;;5051144;28;20029;-65
2021/06/17 06:40:20;;;;;;;11.70;8.55;;;24.50;78.70;;;;;;5052575;28;20059;-65
2021/06/17 06:42:46;;;;;;;9.82;8.38;;;24.70;77.80;;;;;;5050554;28;20025;-65
2021/06/17 06:45:12;;;;;;;11.90;8.00;;;24.70;77.50;;;;;;5052624;28;20025;-65
2021/06/17 06:47:38;;;;;;;7.32;6.63;;;24.70;77.60;;;;;;5052435;28;20484;-65
2021/06/17 06:50:05;;;;;;;12.27;8.05;;;24.80;77.00;;;;;;5052621;28;20112;-65
2021/06/17 06:52:30;;;;;;;10.25;7.75;;;24.80;77.40;;;;;;5052424;28;20502;-65
2021/06/17 06:54:58;;;;;;;11.23;8.82;;;24.80;77.30;;;;;;5052497;28;20104;-65
2021/06/17 06:57:28;;;;;;;8.18;7.38;;;24.90;77.00;;;;;;5051321;28;20082;-65
2021/06/17 06:59:54;;;;;;;10.80;7.50;;;24.80;76.00;;;;;;5051383;28;20122;-65
2021/06/17 07:02:20;;;;;;;9.80;7.78;;;24.90;76.20;;;;;;5051255;28;20484;-65
2021/06/17 07:04:46;;;;;;;13.40;8.57;;;24.90;76.30;;;;;;5052632;28;20108;-65
2021/06/17 07:07:11;;;;;;;9.07;8.05;;;24.90;76.60;;;;;;5051095;28;20021;-66
2021/06/17 07:09:37;;;;;;;10.13;6.80;;;24.90;75.80;;;;;;5052510;28;20104;-66
2021/06/17 07:12:03;;;;;;;12.88;8.88;;;25.00;76.20;;;;;;5050779;28;20029;-66
2021/06/17 07:14:29;;;;;;;9.63;6.68;;;25.00;75.90;;;;;;5052506;28;20083;-66
2021/06/17 07:16:55;;;;;;;10.43;7.43;;;25.10;76.10;;;;;;5052314;28;20021;-66
2021/06/17 07:19:20;;;;;;;9.70;7.25;;;25.10;76.60;;;;;;5052629;28;20032;-65
2021/06/17 07:21:46;;;;;;;14.30;8.90;;;25.10;76.90;;;;;;5052482;28;20108;-65
2021/06/17 07:24:12;;;;;;;8.77;7.70;;;25.20;76.40;;;;;;5052461;28;20473;-65
2021/06/17 07:26:37;;;;;;;7.10;6.30;;;25.30;77.10;;;;;;5052486;28;20045;-65
2021/06/17 07:29:03;;;;;;;7.65;6.90;;;25.50;76.70;;;;;;5052272;28;20025;-65
2021/06/17 07:31:29;;;;;;;6.97;6.28;;;25.70;75.10;;;;;;5052498;28;20104;-65
2021/06/17 07:33:55;;;;;;;7.57;5.68;;;25.90;73.00;;;;;;5052607;28;20105;-65
2021/06/17 07:36:20;;;;;;;6.32;5.18;;;26.10;71.10;;;;;;5052705;28;20044;-65
2021/06/17 07:38:46;;;;;;;5.18;4.30;;;26.30;70.40;;;;;;5054202;28;20538;-65
2021/06/17 07:41:12;;;;;;;5.95;3.70;;;26.40;70.00;;;;;;5055134;28;20387;-65
2021/06/17 07:43:38;;;;;;;4.28;3.85;;;26.50;69.80;;;;;;5056232;28;20469;-66
2021/06/17 07:46:05;;;;;;;4.60;3.10;;;26.70;68.40;;;;;;5056406;28;20365;-66
2021/06/17 07:48:32;;;;;;;4.40;3.03;;;26.80;67.20;;;;;;5055641;28;20099;-66
2021/06/17 07:50:57;;;;;;;3.88;2.65;;;26.80;66.40;;;;;;5055737;28;20488;-66
2021/06/17 07:53:23;;;;;;;2.92;2.72;;;26.80;66.10;;;;;;5054465;28;20059;-66
2021/06/17 07:55:48;;;;;;;4.15;3.25;;;26.90;66.10;;;;;;5055937;28;20468;-66
2021/06/17 07:58:15;;;;;;;3.58;2.65;;;27.00;66.10;;;;;;5055944;28;20029;-66
2021/06/17 08:00:41;;;;;;;4.45;2.67;;;27.00;65.80;;;;;;5054344;28;20025;-66
2021/06/17 08:03:08;;;;;;;3.53;2.85;;;27.10;65.50;;;;;;5054565;28;20033;-66
2021/06/17 08:05:34;;;;;;;3.80;2.88;;;27.10;65.30;;;;;;5055526;28;20032;-67
2021/06/17 08:08:00;;;;;;;3.55;2.60;;;27.20;65.60;;;;;;5056007;28;20025;-67
2021/06/17 08:10:25;;;;;;;4.50;2.72;;;27.30;66.20;;;;;;5055687;28;20363;-67
2021/06/17 08:12:51;;;;;;;3.67;2.75;;;27.40;66.10;;;;;;5054275;28;20025;-66
2021/06/17 08:15:17;;;;;;;3.00;2.70;;;27.40;66.00;;;;;;5055732;28;20064;-67
2021/06/17 08:17:43;;;;;;;2.55;2.20;;;27.40;66.20;;;;;;5054165;28;20083;-67
2021/06/17 08:20:09;;;;;;;3.88;2.80;;;27.50;66.50;;;;;;5053451;28;20025;-67
2021/06/17 08:22:36;;;;;;;6.63;3.38;;;27.50;65.90;;;;;;5055530;28;20388;-67
2021/06/17 08:25:03;;;;;;;2.58;2.13;;;27.60;65.50;;;;;;5055376;28;20052;-67
2021/06/17 08:27:29;;;;;;;3.45;2.92;;;27.60;65.60;;;;;;5054599;28;20401;-67
2021/06/17 08:29:54;;;;;;;3.10;2.40;;;27.60;65.30;;;;;;5030903;28;20057;-66
2021/06/17 08:32:20;;;;;;;4.18;3.67;;;27.70;65.40;;;;;;5031652;28;20029;-67
2021/06/17 08:34:45;;;;;;;3.08;2.47;;;27.70;65.30;;;;;;5040910;28;20025;-67
2021/06/17 08:37:11;;;;;;;2.70;2.00;;;27.80;65.80;;;;;;5055279;28;20029;-67
2021/06/17 08:39:37;;;;;;;2.40;2.10;;;27.80;65.60;;;;;;5055255;28;20124;-67
2021/06/17 08:42:04;;;;;;;2.40;1.90;;;27.90;65.30;;;;;;5054900;28;20067;-67
2021/06/17 08:44:30;;;;;;;4.50;2.10;;;28.00;65.00;;;;;;5053935;28;20499;-67
2021/06/17 08:46:59;;;;;;;2.50;2.00;;;28.00;64.80;;;;;;5026531;28;20043;-67
2021/06/17 08:49:27;;;;;;;3.13;2.25;;;28.10;64.50;;;;;;5038661;28;20029;-66
2021/06/17 08:51:57;;;;;;;2.80;2.30;;;28.20;64.60;;;;;;5053576;28;20033;-66
2021/06/17 08:54:24;;;;;;;3.30;2.10;;;28.30;64.30;;;;;;5052240;28;20082;-66
2021/06/17 08:56:51;;;;;;;2.70;2.25;;;28.30;64.00;;;;;;5054300;28;20021;-66
2021/06/17 08:59:17;;;;;;;3.25;2.50;;;28.40;63.90;;;;;;5053103;28;20536;-66
2021/06/17 09:01:57;;;;;;;3.78;2.45;;;28.40;63.90;;;;;;5053177;28;20053;-66
2021/06/17 09:04:26;;;;;;;3.60;2.85;;;28.60;63.60;;;;;;5034673;28;20025;-67
2021/06/17 09:06:59;;;;;;;;;;;28.60;63.70;;;;;;5027104;28;20104;-66
2021/06/17 09:09:38;;;;;;;2.22;1.95;;;28.70;63.90;;;;;;5038475;28;19995;-66
2021/06/17 09:12:05;;;;;;;2.20;1.73;;;28.70;63.30;;;;;;5051931;28;20105;-66
2021/06/17 09:14:31;;;;;;;3.58;2.20;;;28.80;63.10;;;;;;5054184;28;20033;-66
2021/06/17 09:17:03;;;;;;;2.72;2.53;;;28.90;63.10;;;;;;5053785;28;20107;-66
2021/06/17 09:19:47;;;;;;;2.90;2.13;;;29.00;62.50;;;;;;5053907;28;20021;-66
2021/06/17 09:22:18;;;;;;;3.53;2.00;;;29.00;62.40;;;;;;5053178;28;20017;-66
2021/06/17 09:24:46;;;;;;;5.70;2.35;;;29.10;63.00;;;;;;5051898;28;20013;-66
2021/06/17 09:27:18;;;;;;;5.03;2.47;;;29.10;62.80;;;;;;5053815;28;20013;-66
2021/06/17 09:29:44;;;;;;;4.90;2.55;;;29.30;62.50;;;;;;5051679;28;20014;-66
2021/06/17 09:32:21;;;;;;;2.42;2.17;;;29.40;62.40;;;;;;5053699;28;20017;-67
2021/06/17 09:34:47;;;;;;;3.80;2.55;;;29.50;62.20;;;;;;5050756;28;20473;-67
2021/06/17 09:37:32;;;;;;;3.00;2.40;;;29.60;61.80;;;;;;5053817;28;20025;-67
2021/06/17 09:39:58;;;;;;;3.50;2.15;;;29.80;61.50;;;;;;5053220;28;20010;-66
2021/06/17 09:42:30;;;;;;;3.08;2.63;;;29.90;61.40;;;;;;5052028;28;20047;-66
2021/06/17 09:44:58;;;;;;;3.92;2.45;;;30.00;60.70;;;;;;5053551;28;20017;-66
2021/06/17 09:47:25;;;;;;;4.40;3.00;;;30.20;60.60;;;;;;5053618;28;20028;-66
2021/06/17 09:49:52;;;;;;;3.97;2.30;;;30.30;60.00;;;;;;5052323;28;20028;-66
2021/06/17 09:52:18;;;;;;;3.70;2.47;;;30.40;59.80;;;;;;5053965;28;20013;-66
2021/06/17 09:54:45;;;;;;;4.13;3.17;;;30.60;59.50;;;;;;5053763;28;20087;-66
2021/06/17 09:57:18;;;;;;;3.42;2.72;;;30.70;59.10;;;;;;5053538;28;20575;-66
2021/06/17 09:59:50;;;;;;;3.97;2.85;;;30.90;58.60;;;;;;5053242;28;20044;-66
2021/06/17 10:02:22;;;;;;;4.78;2.47;;;31.00;58.10;;;;;;5052728;28;20060;-67
2021/06/17 10:04:48;;;;;;;3.15;2.85;;;31.10;58.30;;;;;;5053622;28;20013;-67
2021/06/17 10:07:16;;;;;;;3.88;2.67;;;31.20;57.70;;;;;;5053544;28;20086;-66
2021/06/17 10:09:42;;;;;;;2.92;2.55;;;31.20;57.10;;;;;;5053498;28;20090;-66
2021/06/17 10:12:08;;;;;;;2.75;2.50;;;31.10;57.50;;;;;;5053418;28;20477;-67
2021/06/17 10:14:34;;;;;;;4.45;3.20;;;31.20;56.90;;;;;;5052200;28;20087;-67
2021/06/17 10:16:59;;;;;;;5.97;3.05;;;31.20;57.80;;;;;;5053115;28;20112;-66
2021/06/17 10:19:26;;;;;;;3.20;2.90;;;31.30;57.40;;;;;;5053408;28;20035;-67
2021/06/17 10:21:52;;;;;;;6.65;3.13;;;31.30;55.70;;;;;;5051300;28;20032;-67
2021/06/17 10:24:27;;;;;;;4.07;2.97;;;31.30;56.60;;;;;;5051658;28;20040;-67
2021/06/17 10:26:57;;;;;;;4.03;2.60;;;31.30;56.30;;;;;;5053168;28;20025;-67
2021/06/17 10:29:48;;;;;;;4.20;3.00;;;31.40;56.90;;;;;;5052884;28;20028;-67
2021/06/17 10:32:17;;;;;;;5.03;3.20;;;31.40;58.00;;;;;;5052100;28;20551;-67
2021/06/17 10:34:53;;;;;;;5.53;2.83;;;31.50;56.00;;;;;;5052469;28;20028;-67
2021/06/17 10:37:26;;;;;;;5.53;3.60;;;31.70;55.60;;;;;;5053111;28;20481;-67
2021/06/17 10:39:54;;;;;;;4.53;3.20;;;31.90;55.00;;;;;;5051788;28;20075;-67
2021/06/17 10:42:40;;;;;;;3.80;3.30;;;31.70;54.50;;;;;;5055589;28;20028;-67
2021/06/17 10:45:35;;;;;;;5.50;3.47;;;31.70;55.40;;;;;;5057892;28;20029;-67
2021/06/17 10:48:02;;;;;;;4.05;2.90;;;31.80;55.20;;;;;;5054984;28;20035;-67
2021/06/17 10:50:33;;;;;;;5.68;3.30;;;31.90;56.20;;;;;;5052861;28;20021;-67
2021/06/17 10:53:20;;;;;;;5.25;3.40;;;31.90;55.10;;;;;;5052942;28;20028;-67
2021/06/17 10:56:01;;;;;;;6.77;3.40;;;31.80;55.80;;;;;;5052869;28;20029;-67
2021/06/17 10:58:42;;;;;;;3.47;2.80;;;31.90;55.10;;;;;;5051366;28;20279;-67
2021/06/17 11:01:23;;;;;;;5.30;3.83;;;32.10;55.50;;;;;;5057961;28;20510;-67
2021/06/17 11:04:08;;;;;;;4.25;3.00;;;32.30;54.40;;;;;;5052279;28;20025;-67
2021/06/17 11:06:49;;;;;;;5.18;3.00;;;32.10;55.00;;;;;;5049977;28;20024;-67
2021/06/17 11:09:33;;;;;;;4.10;3.05;;;32.20;55.20;;;;;;5048671;28;20013;-67
2021/06/17 11:12:18;;;;;;;5.78;3.47;;;32.30;54.80;;;;;;5059713;28;20032;-68
2021/06/17 11:14:50;;;;;;;4.13;3.10;;;32.40;54.50;;;;;;5066042;28;20025;-68
2021/06/17 11:17:31;;;;;;;3.83;3.42;;;32.40;54.80;;;;;;5058957;28;20047;-68
2021/06/17 11:20:33;;;;;;;3.90;3.13;;;32.30;54.10;;;;;;5055869;28;20017;-68
2021/06/17 11:22:59;;;;;;;4.22;2.95;;;32.30;54.60;;;;;;5063325;28;20043;-68
2021/06/17 11:25:28;;;;;;;2.75;2.10;;;32.40;54.90;;;;;;5052901;28;20105;-68
2021/06/17 11:28:04;;;;;;;3.17;2.47;;;32.60;55.20;;;;;;5059378;28;20468;-68
2021/06/17 11:30:42;;;;;;;3.63;2.72;;;32.70;55.00;;;;;;5053508;28;20040;-68
2021/06/17 11:33:16;;;;;;;4.60;3.15;;;32.80;54.60;;;;;;5055783;28;20112;-68
2021/06/17 11:35:44;;;;;;;6.78;3.58;;;32.70;53.20;;;;;;5056378;28;20082;-68
2021/06/17 11:38:10;;;;;;;3.95;3.58;;;32.60;53.70;;;;;;5052080;28;20031;-68
2021/06/17 11:40:36;;;;;;;4.65;3.15;;;32.60;54.70;;;;;;5055863;28;20025;-68
2021/06/17 11:43:02;;;;;;;4.60;3.20;;;32.70;54.80;;;;;;5056245;28;20799;-68
2021/06/17 11:45:35;;;;;;;3.08;2.85;;;32.70;52.90;;;;;;5052862;28;20125;-68
2021/06/17 11:48:03;;;;;;;4.35;2.75;;;32.60;51.50;;;;;;5054692;28;20104;-68
2021/06/17 11:50:29;;;;;;;6.07;2.30;;;32.60;51.70;;;;;;5052143;28;20032;-68
2021/06/17 11:52:55;;;;;;;4.10;2.20;;;32.70;50.70;;;;;;5056064;28;20259;-68
2021/06/17 11:55:21;;;;;;;4.63;1.80;;;32.60;47.20;;;;;;5056009;28;20281;-68
2021/06/17 11:57:47;;;;;;;4.85;2.75;;;32.50;48.90;;;;;;5055912;28;20532;-68
2021/06/17 12:00:28;;;;;;;6.10;2.40;;;32.70;49.90;;;;;;5055821;28;20052;-68
2021/06/17 12:02:54;;;;;;;5.30;2.85;;;32.90;49.70;;;;;;5055915;28;20070;-68
2021/06/17 12:05:23;;;;;;;3.25;2.58;;;32.90;48.80;;;;;;5055944;28;20025;-68
2021/06/17 12:07:49;;;;;;;6.15;2.67;;;32.70;49.30;;;;;;5054540;28;20024;-68
2021/06/17 12:10:21;;;;;;;3.60;2.10;;;32.70;50.00;;;;;;5055736;28;20025;-68
2021/06/17 12:12:50;;;;;;;2.67;1.88;;;32.80;49.90;;;;;;5055778;28;20092;-68
2021/06/17 12:15:18;;;;;;;2.45;1.60;;;33.10;49.80;;;;;;5055447;28;20022;-68
2021/06/17 12:17:46;;;;;;;3.10;1.77;;;33.40;49.60;;;;;;5053711;28;20048;-68
2021/06/17 12:20:17;;;;;;;;;;;33.60;48.80;;;;;;5055531;28;20048;-68
2021/06/17 12:23:02;;;;;;;2.25;1.50;;;33.70;48.80;;;;;;5055280;28;19905;-68
2021/06/17 12:25:31;;;;;;;3.38;2.08;;;33.80;48.50;;;;;;5058927;28;20036;-68
2021/06/17 12:28:02;;;;;;;3.17;1.77;;;33.70;48.10;;;;;;5058488;28;20017;-68
2021/06/17 12:30:34;;;;;;;2.40;1.88;;;33.50;47.70;;;;;;5060171;28;20013;-69
2021/06/17 12:33:08;;;;;;;3.25;1.77;;;33.40;47.70;;;;;;5051242;28;20021;-69
2021/06/17 12:35:48;;;;;;;2.90;1.35;;;33.50;48.10;;;;;;5054747;28;20067;-69
2021/06/17 12:38:35;;;;;;;4.40;1.90;;;33.60;48.60;;;;;;5054839;28;20029;-69
2021/06/17 12:41:16;;;;;;;2.55;1.50;;;33.80;48.50;;;;;;5052794;28;20468;-69
2021/06/17 12:43:55;;;;;;;4.05;1.73;;;33.90;48.60;;;;;;5052785;28;20025;-69
2021/06/17 12:46:36;;;;;;;2.97;1.50;;;33.90;47.30;;;;;;5052738;28;20017;-69
2021/06/17 12:54:38;;;;;;;2.30;1.30;;;33.80;47.50;;;;;;5053734;28;20028;-69
2021/06/17 12:57:05;;;;;;;1.80;1.02;;;33.70;47.90;;;;;;5053004;28;20455;-70
2021/06/17 12:59:39;;;;;;;3.10;1.70;;;33.80;47.70;;;;;;5053648;28;20021;-70
2021/06/17 13:02:06;;;;;;;2.78;1.50;;;33.80;47.30;;;;;;5054405;28;20404;-70
2021/06/17 13:04:32;;;;;;;2.85;1.50;;;33.70;47.40;;;;;;5054654;28;20040;-70